Time;durP1;ratioP1;P1;durP2;ratioP2;P2;SDS_P1;SDS_P2;PMS_P1;PMS_P2;Temp;Humidity;BMP_temperature;BMP_pressure;BME280_temperature;BME280_humidity;BME280_pressure;Samples;Min_cycle;Max_cycle;Signal;HPM_P1;HPM_P2
2023/10/12 00:01:58;;;;;;;12.50;4.32;;;;;;;17.40;95.76;101305.69;4976181;28;96657;-28
2023/10/12 00:04:35;;;;;;;8.85;4.13;;;;;;;17.37;95.60;101314.13;4977789;28;96609;-27
2023/10/12 00:07:08;;;;;;;8.68;3.55;;;;;;;17.39;95.57;101316.75;4977542;28;98092;-27
2023/10/12 00:09:33;;;;;;;9.18;3.65;;;;;;;17.35;96.34;101307.94;4975579;28;100922;-27
2023/10/12 00:12:07;;;;;;;7.13;3.72;;;;;;;17.31;95.90;101311.94;4977352;28;96415;-28
2023/10/12 00:14:32;;;;;;;13.05;4.32;;;;;;;17.29;95.96;101313.91;4977766;28;96689;-27
2023/10/12 00:16:58;;;;;;;6.68;3.88;;;;;;;17.28;96.48;101314.03;4977324;28;97918;-29
2023/10/12 00:19:25;;;;;;;8.18;3.80;;;;;;;17.22;96.67;101312.69;4977289;28;97334;-27
2023/10/12 00:22:00;;;;;;;6.57;3.80;;;;;;;17.29;96.72;101330.34;4975447;28;96686;-28
2023/10/12 00:24:26;;;;;;;8.60;3.92;;;;;;;17.22;96.75;101322.78;4976053;28;96795;-27
2023/10/12 00:26:53;;;;;;;12.20;4.53;;;;;;;17.23;96.66;101330.84;4975655;28;101043;-27
2023/10/12 00:29:18;;;;;;;8.90;3.92;;;;;;;17.27;96.38;101342.44;4975807;28;97328;-28
2023/10/12 00:31:46;;;;;;;9.98;3.70;;;;;;;17.20;96.99;101336.56;4977367;28;96665;-27
2023/10/12 00:34:12;;;;;;;5.03;2.97;;;;;;;17.19;96.81;101332.97;4975577;28;96812;-27
2023/10/12 00:36:40;;;;;;;7.68;3.95;;;;;;;17.20;96.83;101339.31;4976486;28;98981;-29
2023/10/12 00:39:09;;;;;;;8.70;3.72;;;;;;;17.23;96.76;101347.25;4975731;28;100768;-27
2023/10/12 00:41:37;;;;;;;10.30;4.25;;;;;;;17.25;97.38;101353.50;4975600;28;96576;-29
2023/10/12 00:49:14;;;;;;;10.00;3.85;;;;;;;17.26;96.83;101349.78;4976723;28;97809;-27
2023/10/12 00:51:48;;;;;;;6.50;3.53;;;;;;;17.25;97.75;101352.63;4976798;28;96696;-28
2023/10/12 00:54:14;;;;;;;8.98;3.53;;;;;;;17.22;97.20;101345.53;4975321;28;96820;-30
2023/10/12 00:56:43;;;;;;;7.32;3.03;;;;;;;17.22;97.35;101342.81;4976415;28;99852;-27
2023/10/12 00:59:11;;;;;;;9.88;4.20;;;;;;;17.22;97.62;101330.97;4974874;28;101027;-27
2023/10/12 01:01:37;;;;;;;5.93;3.13;;;;;;;17.19;97.57;101330.22;4975073;28;96770;-27
2023/10/12 01:04:03;;;;;;;9.15;3.17;;;;;;;17.23;97.51;101341.78;4977236;28;96749;-28
2023/10/12 01:06:28;;;;;;;7.47;3.28;;;;;;;17.25;97.28;101339.81;4976268;28;98935;-27
2023/10/12 01:08:59;;;;;;;8.65;3.63;;;;;;;17.17;96.89;101334.97;4976040;28;99495;-27
2023/10/12 01:11:26;;;;;;;7.03;3.35;;;;;;;17.18;98.08;101328.50;4976155;28;96570;-29
2023/10/12 01:16:54;;;;;;;6.32;2.58;;;;;;;17.14;97.33;101320.66;4976213;28;97489;-28
2023/10/12 01:19:23;;;;;;;7.03;2.58;;;;;;;17.11;97.73;101320.91;4975986;28;99142;-28
2023/10/12 01:21:55;;;;;;;6.07;2.95;;;;;;;17.10;97.23;101325.50;4975006;28;96623;-27
2023/10/12 01:24:29;;;;;;;5.80;2.40;;;;;;;17.06;97.39;101318.53;4974970;28;96850;-27
2023/10/12 01:26:56;;;;;;;7.43;2.92;;;;;;;17.06;98.05;101323.16;4974504;28;100944;-27
2023/10/12 01:29:22;;;;;;;4.63;2.72;;;;;;;17.04;97.76;101315.06;4974854;28;101160;-27
2023/10/12 01:32:20;;;;;;;7.57;3.13;;;;;;;17.02;97.89;101299.75;4976035;28;96774;-27
2023/10/12 01:34:44;;;;;;;;;;;;;;;17.04;97.92;101319.66;4976061;28;98179;-28
2023/10/12 01:37:28;;;;;;;5.00;2.17;;;;;;;17.01;97.89;101315.31;4973854;28;100941;-28
2023/10/12 01:39:58;;;;;;;5.38;2.67;;;;;;;17.01;97.71;101303.50;4975543;28;99882;-27
2023/10/12 01:42:35;;;;;;;6.68;2.72;;;;;;;16.93;97.56;101291.31;4974750;28;96774;-27
2023/10/12 01:45:04;;;;;;;8.25;2.25;;;;;;;16.99;97.75;101300.88;4974386;28;96988;-28
2023/10/12 01:47:29;;;;;;;11.25;2.70;;;;;;;16.95;97.86;101292.06;4974017;28;100990;-29
2023/10/12 01:49:55;;;;;;;6.75;2.40;;;;;;;16.95;98.05;101294.78;4975472;28;97707;-28
2023/10/12 01:52:20;;;;;;;8.40;2.45;;;;;;;16.95;98.38;101300.25;4975942;28;96518;-28
2023/10/12 01:54:49;;;;;;;4.43;2.28;;;;;;;16.93;97.66;101301.38;4976051;28;96906;-28
2023/10/12 01:57:25;;;;;;;11.95;2.38;;;;;;;16.93;97.73;101298.66;4973989;28;101371;-28
2023/10/12 01:59:54;;;;;;;8.93;2.67;;;;;;;16.94;97.85;101292.16;4974195;28;101465;-27
2023/10/12 02:02:21;;;;;;;6.10;2.55;;;;;;;16.91;97.71;101304.25;4975367;28;96575;-28
2023/10/12 02:04:47;;;;;;;3.72;2.08;;;;;;;16.89;97.92;101311.69;4974327;28;96928;-28
2023/10/12 02:07:13;;;;;;;7.43;2.40;;;;;;;16.88;97.93;101303.63;4974227;28;97994;-28
2023/10/12 02:09:39;;;;;;;7.47;1.85;;;;;;;16.88;97.92;101306.38;4973923;28;101085;-29
2023/10/12 02:12:13;;;;;;;6.22;1.80;;;;;;;16.86;97.71;101303.75;4975779;28;96581;-27
2023/10/12 02:14:40;;;;;;;4.60;1.75;;;;;;;16.81;97.60;101292.31;4973985;28;96643;-28
2023/10/12 02:17:09;;;;;;;6.30;1.67;;;;;;;16.86;97.34;101295.53;4973932;28;99159;-28
2023/10/12 02:19:43;;;;;;;10.82;2.80;;;;;;;16.87;97.53;101283.56;4975456;28;99434;-28
2023/10/12 02:22:19;;;;;;;6.07;2.28;;;;;;;16.83;97.30;101273.00;4974218;28;96701;-29
2023/10/12 02:24:51;;;;;;;8.40;1.88;;;;;;;16.83;97.42;101253.84;4974188;28;96665;-28
2023/10/12 02:27:17;;;;;;;4.82;1.95;;;;;;;16.81;97.68;101256.75;4973082;28;100862;-28
2023/10/12 02:29:48;;;;;;;5.95;2.00;;;;;;;16.81;97.72;101270.41;4973539;28;100792;-28
2023/10/12 02:32:23;;;;;;;5.75;2.00;;;;;;;16.76;98.10;101261.69;4974160;28;96532;-27
2023/10/12 02:34:55;;;;;;;4.75;1.83;;;;;;;16.77;98.17;101271.63;4973818;28;96773;-27
2023/10/12 02:37:21;;;;;;;2.90;1.45;;;;;;;16.74;98.49;101263.66;4973632;28;101082;-27
2023/10/12 02:39:46;;;;;;;3.10;1.77;;;;;;;16.77;98.29;101274.34;4974678;28;99613;-29
2023/10/12 02:47:22;;;;;;;4.85;1.80;;;;;;;16.71;98.43;101285.81;4974709;28;98026;-29
2023/10/12 02:50:15;;;;;;;4.93;2.08;;;;;;;16.69;98.77;101298.75;4973287;28;100814;-28
2023/10/12 02:52:43;;;;;;;6.28;1.90;;;;;;;16.64;98.70;101277.22;4973674;28;96541;-28
2023/10/12 02:57:53;;;;;;;5.75;2.05;;;;;;;16.65;98.87;101275.34;4973823;28;97873;-27
2023/10/12 03:00:21;;;;;;;7.35;2.28;;;;;;;16.62;98.58;101261.94;4973289;28;98827;-28
2023/10/12 03:02:48;;;;;;;5.93;2.10;;;;;;;16.66;98.96;101277.97;4975011;28;96621;-28
2023/10/12 03:05:17;;;;;;;3.45;1.85;;;;;;;16.67;99.44;101268.75;4974871;28;96768;-28
2023/10/12 03:07:44;;;;;;;4.60;1.73;;;;;;;16.67;98.89;101262.41;4974433;28;97366;-28
2023/10/12 03:10:29;;;;;;;5.93;2.28;;;;;;;16.67;99.05;101273.38;4973491;28;100929;-28
2023/10/12 03:12:55;;;;;;;6.15;2.20;;;;;;;16.65;99.07;101270.75;4975039;28;96633;-28
2023/10/12 03:15:43;;;;;;;5.22;2.15;;;;;;;16.61;99.17;101271.97;4974919;28;96734;-29
2023/10/12 03:18:12;;;;;;;4.63;2.30;;;;;;;16.61;99.15;101279.31;4974004;28;99597;-29
2023/10/12 03:20:38;;;;;;;5.60;2.05;;;;;;;16.58;99.41;101282.31;4973011;28;101187;-28
2023/10/12 03:23:14;;;;;;;6.18;2.13;;;;;;;16.58;99.19;101290.50;4973348;28;96800;-28
2023/10/12 03:25:43;;;;;;;4.03;1.90;;;;;;;16.61;99.33;101293.84;4974758;28;96701;-28
2023/10/12 03:28:13;;;;;;;5.25;2.15;;;;;;;16.60;99.46;101303.06;4974252;28;99834;-27
2023/10/12 03:30:52;;;;;;;4.47;1.70;;;;;;;16.60;99.63;101299.47;4972880;28;100910;-28
2023/10/12 03:33:18;;;;;;;4.97;2.03;;;;;;;16.60;99.73;101302.19;4973321;28;96665;-27
2023/10/12 03:35:57;;;;;;;6.90;2.35;;;;;;;16.58;99.30;101298.72;4974949;28;96722;-27
2023/10/12 03:38:25;;;;;;;4.65;2.15;;;;;;;16.51;99.19;101290.97;4972888;28;101618;-28
2023/10/12 03:41:30;;;;;;;7.50;2.72;;;;;;;16.57;99.62;101300.59;4974302;28;96665;-28
2023/10/12 03:43:39;;;;;;;4.63;1.95;;;;;;;16.59;99.78;101303.19;4973914;28;96594;-27
2023/10/12 03:46:17;;;;;;;6.72;2.67;;;;;;;16.60;99.58;101304.94;4972112;28;96881;-27
2023/10/12 03:51:38;;;;;;;4.43;2.47;;;;;;;16.59;99.92;101303.19;4974297;28;97083;-27
2023/10/12 03:54:11;;;;;;;6.88;2.60;;;;;;;16.62;99.89;101313.91;4974203;28;96642;-28
2023/10/12 03:56:39;;;;;;;4.90;2.53;;;;;;;16.65;99.87;101309.03;4972822;28;96776;-27
2023/10/12 03:59:08;;;;;;;7.05;2.50;;;;;;;16.61;99.54;101309.41;4972755;28;101629;-28
2023/10/12 04:01:39;;;;;;;4.20;2.08;;;;;;;16.58;100.00;101306.91;4974301;28;99651;-28
2023/10/12 04:10:14;;;;;;;6.53;2.42;;;;;;;16.63;100.00;101310.16;4974299;28;97904;-27
2023/10/12 04:12:29;;;;;;;6.72;2.50;;;;;;;16.61;100.00;101307.53;4976549;28;98715;-28
2023/10/12 04:14:55;;;;;;;6.30;2.50;;;;;;;16.65;99.74;101319.97;4977443;28;96522;-27
2023/10/12 04:26:08;;;;;;;9.23;3.10;;;;;;;16.59;100.00;101306.81;4976349;28;96750;-28
2023/10/12 04:28:23;;;;;;;3.88;2.38;;;;;;;16.64;100.00;101331.06;4971591;28;96687;-28
2023/10/12 04:33:18;;;;;;;5.50;3.10;;;;;;;16.66;100.00;101340.00;4975614;28;97942;-28
2023/10/12 04:43:36;;;;;;;8.88;3.45;;;;;;;16.54;100.00;101320.84;4976985;28;97036;-27
2023/10/12 04:46:26;;;;;;;10.10;4.05;;;;;;;16.54;100.00;101319.94;4976236;28;96749;-27
2023/10/12 04:48:59;;;;;;;9.45;3.55;;;;;;;16.55;100.00;101336.25;4976584;28;96966;-27
2023/10/12 04:51:30;;;;;;;7.68;3.70;;;;;;;16.51;100.00;101337.47;4975149;28;100973;-28
2023/10/12 04:54:49;;;;;;;10.63;3.80;;;;;;;16.53;100.00;101342.84;4975401;28;100843;-28
2023/10/12 04:56:55;;;;;;;11.63;3.47;;;;;;;16.51;100.00;101345.69;4970615;28;97017;-28
2023/10/12 04:59:26;;;;;;;8.25;3.78;;;;;;;16.50;100.00;101346.69;4976354;28;96682;-28
2023/10/12 05:09:49;;;;;;;8.55;3.83;;;;;;;16.55;100.00;101358.13;4976617;28;96749;-27
2023/10/12 05:12:16;;;;;;;8.35;3.25;;;;;;;16.54;100.00;101353.66;4974794;28;100862;-27
2023/10/12 05:14:41;;;;;;;9.18;3.70;;;;;;;16.56;100.00;101356.25;4974184;28;100801;-29
2023/10/12 05:17:09;;;;;;;11.05;3.38;;;;;;;16.56;100.00;101359.91;4976920;28;96518;-28
2023/10/12 05:19:35;;;;;;;7.97;2.70;;;;;;;16.62;100.00;101363.13;4975451;28;96926;-27
2023/10/12 05:22:01;;;;;;;8.13;3.05;;;;;;;16.62;100.00;101374.94;4974500;28;101067;-28
2023/10/12 05:24:26;;;;;;;6.97;3.10;;;;;;;16.61;100.00;101369.56;4976254;28;97893;-28
2023/10/12 05:26:54;;;;;;;9.10;3.45;;;;;;;16.56;100.00;101367.19;4975926;28;96610;-29
2023/10/12 05:32:06;;;;;;;5.63;2.45;;;;;;;16.51;100.00;101362.09;4974898;28;98246;-28
2023/10/12 05:39:51;;;;;;;4.65;2.38;;;;;;;16.60;100.00;101381.53;4976703;28;96680;-28
2023/10/12 05:42:20;;;;;;;7.90;2.42;;;;;;;16.59;100.00;101382.50;4975604;28;99776;-27
2023/10/12 05:44:50;;;;;;;6.82;2.45;;;;;;;16.56;100.00;101380.88;4974909;28;99388;-27
2023/10/12 05:47:18;;;;;;;5.13;2.20;;;;;;;16.56;100.00;101375.41;4974391;28;96979;-27
2023/10/12 05:49:45;;;;;;;5.78;2.35;;;;;;;16.54;100.00;101380.13;4974662;28;96911;-27
2023/10/12 05:52:11;;;;;;;6.20;2.33;;;;;;;16.56;100.00;101375.41;4972615;28;100823;-28
2023/10/12 05:54:40;;;;;;;7.32;2.50;;;;;;;16.56;100.00;101380.88;4973562;28;101031;-29
2023/10/12 05:57:16;;;;;;;7.85;2.00;;;;;;;16.51;100.00;101374.91;4972655;28;97183;-28
2023/10/12 05:59:42;;;;;;;6.47;2.03;;;;;;;16.50;100.00;101375.91;4976013;28;96672;-28
2023/10/12 06:02:09;;;;;;;5.43;1.88;;;;;;;16.51;100.00;101389.44;4975482;28;97905;-27
2023/10/12 06:04:34;;;;;;;6.07;1.70;;;;;;;16.50;100.00;101398.66;4975380;28;97965;-28
2023/10/12 06:07:00;;;;;;;5.82;1.80;;;;;;;16.44;100.00;101393.66;4975484;28;97021;-28
2023/10/12 06:09:25;;;;;;;1.75;1.20;;;;;;;16.34;100.00;101401.69;4976125;28;96896;-27
2023/10/12 06:11:51;;;;;;;1.70;0.75;;;;;;;16.21;100.00;101406.38;4974383;28;104119;-29
2023/10/12 06:14:23;;;;;;;0.82;0.63;;;;;;;16.16;100.00;101405.84;4971168;28;100977;-29
2023/10/12 06:16:55;;;;;;;0.90;0.50;;;;;;;16.11;100.00;101410.78;4971202;28;97159;-31
2023/10/12 06:19:28;;;;;;;1.08;0.68;;;;;;;16.08;100.00;101411.88;4971659;28;96910;-28
2023/10/12 06:21:58;;;;;;;0.80;0.30;;;;;;;16.04;100.00;101421.31;4971282;28;101318;-33
2023/10/12 06:24:36;;;;;;;0.60;0.40;;;;;;;15.95;99.45;101440.28;4971291;28;101604;-32
2023/10/12 06:29:47;;;;;;;0.30;0.30;;;;;;;15.78;99.68;101439.66;4974066;28;96570;-27
2023/10/12 06:32:19;;;;;;;0.45;0.22;;;;;;;15.70;99.71;101442.06;4973620;28;100989;-27
2023/10/12 06:35:13;;;;;;;0.57;0.30;;;;;;;15.66;99.88;101438.69;4973953;28;100933;-28
2023/10/12 06:45:47;;;;;;;0.10;0.10;;;;;;;15.57;100.00;101453.00;4974138;28;100194;-28
2023/10/12 06:51:10;;;;;;;0.65;0.30;;;;;;;15.47;99.37;101451.94;4974022;28;96652;-27
2023/10/12 06:53:40;;;;;;;0.20;0.17;;;;;;;15.47;100.00;101462.84;4974961;28;98557;-28
2023/10/12 06:59:07;;;;;;;0.88;0.38;;;;;;;15.38;99.69;101458.94;4973368;28;96646;-28
2023/10/12 07:01:38;;;;;;;0.68;0.30;;;;;;;15.35;100.00;101456.44;4975677;28;96611;-28
2023/10/12 07:04:07;;;;;;;0.35;0.20;;;;;;;15.28;99.75;101460.56;4975131;28;97389;-28
2023/10/12 07:06:32;;;;;;;0.43;0.20;;;;;;;15.27;100.00;101473.31;4973315;28;100989;-29
2023/10/12 07:09:00;;;;;;;0.22;0.20;;;;;;;15.26;99.93;101477.06;4974201;28;96573;-28
2023/10/12 07:11:30;;;;;;;0.43;0.22;;;;;;;15.25;99.86;101488.97;4974662;28;96836;-29
2023/10/12 07:13:56;;;;;;;0.73;0.40;;;;;;;15.25;100.00;101488.97;4974413;28;99722;-30
2023/10/12 07:16:22;;;;;;;0.65;0.28;;;;;;;15.30;100.00;101504.97;4973079;28;100729;-28
2023/10/12 07:18:49;;;;;;;1.08;0.47;;;;;;;15.26;99.85;101493.44;4974805;28;96637;-27
2023/10/12 07:21:21;;;;;;;0.63;0.38;;;;;;;15.15;99.68;101495.16;4973522;28;96835;-28
2023/10/12 07:23:56;;;;;;;0.10;0.10;;;;;;;15.11;99.81;101501.81;4973085;28;101494;-29
2023/10/12 07:26:23;;;;;;;1.75;0.40;;;;;;;15.10;100.00;101506.41;4974722;28;98920;-27
2023/10/12 07:28:50;;;;;;;0.77;0.45;;;;;;;15.04;100.00;101510.44;4973391;28;96760;-28
2023/10/12 07:36:44;;;;;;;0.63;0.25;;;;;;;14.96;100.00;101501.91;4972389;28;97318;-28
2023/10/12 07:39:20;;;;;;;0.57;0.43;;;;;;;14.99;100.00;101517.19;4976128;28;96721;-27
2023/10/12 07:41:54;;;;;;;0.55;0.28;;;;;;;14.84;100.00;101514.53;4977796;28;96704;-28
2023/10/12 07:44:36;;;;;;;1.90;0.47;;;;;;;14.84;100.00;101503.63;4977249;28;99430;-28
2023/10/12 07:47:03;;;;;;;1.33;0.35;;;;;;;14.97;100.00;101519.16;4977316;28;98831;-28
2023/10/12 07:52:08;;;;;;;0.77;0.22;;;;;;;14.97;100.00;101508.22;4978113;28;96525;-27
2023/10/12 07:57:31;;;;;;;0.38;0.17;;;;;;;14.90;100.00;101491.44;4976002;28;97796;-28
2023/10/12 08:03:25;;;;;;;0.65;0.40;;;;;;;14.86;100.00;101493.50;4977796;28;96788;-28
2023/10/12 08:15:55;;;;;;;2.67;0.30;;;;;;;14.85;100.00;101513.59;4975183;28;97549;-28
2023/10/12 08:21:40;;;;;;;0.28;0.17;;;;;;;14.88;100.00;101519.81;4977588;28;96680;-28
2023/10/12 08:31:48;;;;;;;0.80;0.40;;;;;;;14.85;100.00;101534.53;4977455;28;96667;-27
2023/10/12 08:37:19;;;;;;;1.23;0.35;;;;;;;14.88;100.00;101536.19;4975526;28;98237;-29
2023/10/12 08:40:08;;;;;;;0.32;0.32;;;;;;;14.86;100.00;101530.81;4976569;28;99833;-28
2023/10/12 08:42:37;;;;;;;0.35;0.17;;;;;;;14.82;100.00;101523.81;4976785;28;96575;-28
2023/10/12 08:45:15;;;;;;;1.25;0.55;;;;;;;14.80;100.00;101523.94;4977444;28;96611;-27
2023/10/12 08:47:48;;;;;;;2.05;0.70;;;;;;;14.77;100.00;101515.94;4976308;28;99885;-28
2023/10/12 08:52:50;;;;;;;0.50;0.50;;;;;;;14.89;100.00;101535.19;4976307;28;96681;-27
2023/10/12 08:55:19;;;;;;;1.80;0.80;;;;;;;14.88;100.00;101525.25;4975489;28;96644;-28
2023/10/12 08:57:55;;;;;;;1.25;0.43;;;;;;;14.89;100.00;101521.53;4974951;28;101617;-28
2023/10/12 09:03:07;;;;;;;0.80;0.45;;;;;;;14.91;100.00;101519.59;4976525;28;96602;-28
2023/10/12 09:05:34;;;;;;;0.40;0.30;;;;;;;14.96;100.00;101518.28;4976921;28;96577;-28
2023/10/12 09:08:39;;;;;;;0.70;0.63;;;;;;;15.01;100.00;101524.28;4974939;28;101538;-27
2023/10/12 09:10:56;;;;;;;;;;;;;;;14.96;100.00;101507.38;4976664;28;98775;-30
2023/10/12 09:13:24;;;;;;;0.57;0.38;;;;;;;14.89;100.00;101505.19;4975200;28;96641;-28
2023/10/12 09:15:59;;;;;;;0.77;0.55;;;;;;;14.94;100.00;101509.31;4974997;28;96912;-28
2023/10/12 09:18:29;;;;;;;1.02;0.70;;;;;;;14.89;100.00;101486.09;4975538;28;99471;-27
2023/10/12 09:21:25;;;;;;;0.52;0.40;;;;;;;14.90;100.00;101488.72;4975968;28;99608;-28
2023/10/12 09:23:49;;;;;;;2.60;0.90;;;;;;;14.92;100.00;101483.13;4975643;28;96915;-27
2023/10/12 09:26:15;;;;;;;0.73;0.57;;;;;;;14.98;100.00;101488.16;4975166;28;96835;-27
2023/10/12 09:31:13;;;;;;;2.22;1.00;;;;;;;15.02;100.00;101478.81;4975901;28;96662;-30
2023/10/12 09:33:54;;;;;;;2.35;1.23;;;;;;;15.07;100.00;101474.75;4974871;28;96590;-27
2023/10/12 09:36:19;;;;;;;0.70;0.60;;;;;;;15.15;100.00;101478.78;4975105;28;96931;-28
2023/10/12 09:38:45;;;;;;;1.23;0.80;;;;;;;15.19;100.00;101481.19;4975620;28;99515;-28
2023/10/12 09:41:14;;;;;;;2.17;1.20;;;;;;;15.17;100.00;101483.16;4975929;28;97917;-28
2023/10/12 09:43:44;;;;;;;1.17;0.75;;;;;;;15.19;100.00;101478.47;4973895;28;96761;-27
2023/10/12 09:46:13;;;;;;;3.42;1.42;;;;;;;15.22;100.00;101478.25;4973873;28;96927;-28
2023/10/12 09:48:41;;;;;;;2.80;1.33;;;;;;;15.23;100.00;101460.00;4974213;28;99995;-28
2023/10/12 09:51:15;;;;;;;2.92;1.63;;;;;;;15.26;100.00;101468.88;4974280;28;100858;-27
2023/10/12 09:53:53;;;;;;;2.78;1.65;;;;;;;15.22;100.00;101455.53;4974653;28;96520;-27
2023/10/12 09:56:24;;;;;;;8.48;3.50;;;;;;;15.31;100.00;101464.94;4974505;28;96845;-27
2023/10/12 09:59:00;;;;;;;5.97;4.18;;;;;;;15.36;100.00;101470.94;4974321;28;101386;-27
2023/10/12 10:07:35;;;;;;;2.92;1.58;;;;;;;15.41;100.00;101463.28;4974798;28;96622;-29
2023/10/12 10:09:54;;;;;;;2.22;1.27;;;;;;;15.38;100.00;101456.19;4974297;28;97508;-27
2023/10/12 10:12:22;;;;;;;4.05;1.80;;;;;;;15.39;100.00;101451.59;4973982;28;101078;-28
2023/10/12 10:14:57;;;;;;;2.75;1.38;;;;;;;15.36;100.00;101447.25;4974040;28;96663;-28
2023/10/12 10:17:36;;;;;;;3.97;1.75;;;;;;;15.41;100.00;101460.56;4975890;28;96607;-28
2023/10/12 10:23:03;;;;;;;1.90;0.98;;;;;;;15.47;100.00;101451.94;4973263;28;97266;-29
2023/10/12 10:25:34;;;;;;;4.07;1.45;;;;;;;15.43;100.00;101445.81;4975753;28;96595;-28
2023/10/12 10:28:07;;;;;;;2.85;1.70;;;;;;;15.40;100.00;101435.13;4975921;28;96667;-28
2023/10/12 10:30:42;;;;;;;2.17;1.20;;;;;;;15.45;100.00;101432.06;4973627;28;101098;-28
2023/10/12 10:33:20;;;;;;;3.03;1.33;;;;;;;15.47;100.00;101441.00;4975061;28;99889;-27
2023/10/12 10:36:10;;;;;;;4.70;1.60;;;;;;;15.51;100.00;101437.91;4974890;28;96690;-28
2023/10/12 10:38:42;;;;;;;3.08;1.70;;;;;;;15.54;100.00;101428.66;4973990;28;96916;-28
2023/10/12 10:41:08;;;;;;;3.88;1.80;;;;;;;15.57;100.00;101431.16;4974878;28;99393;-27
2023/10/12 10:43:37;;;;;;;2.78;1.50;;;;;;;15.64;100.00;101434.31;4974890;28;97877;-28
2023/10/12 10:46:10;;;;;;;3.58;2.00;;;;;;;15.66;100.00;101427.75;4973219;28;96897;-28
2023/10/12 10:48:38;;;;;;;3.08;1.83;;;;;;;15.70;100.00;101421.09;4975484;28;96541;-27
2023/10/12 10:51:10;;;;;;;3.30;1.75;;;;;;;15.68;100.00;101414.84;4973397;28;101335;-28
2023/10/12 10:53:39;;;;;;;4.45;2.03;;;;;;;15.77;100.00;101432.44;4973907;28;100740;-28
2023/10/12 10:56:15;;;;;;;4.50;2.13;;;;;;;15.83;100.00;101425.66;4973685;28;96737;-27
2023/10/12 10:58:41;;;;;;;3.55;1.92;;;;;;;15.84;100.00;101430.13;4975364;28;96560;-28
2023/10/12 11:01:12;;;;;;;3.78;2.28;;;;;;;15.86;100.00;101431.75;4972799;28;100931;-27
2023/10/12 11:03:39;;;;;;;3.92;2.08;;;;;;;15.87;100.00;101429.88;4973145;28;100778;-28
2023/10/12 11:06:08;;;;;;;5.32;2.42;;;;;;;15.90;100.00;101416.03;4975063;28;96594;-28
2023/10/12 11:08:34;;;;;;;5.68;2.10;;;;;;;15.97;100.00;101416.41;4973787;28;96878;-27
2023/10/12 11:13:34;;;;;;;5.22;2.60;;;;;;;16.14;100.00;101399.63;4972953;28;97869;-28
2023/10/12 11:16:05;;;;;;;6.75;2.85;;;;;;;16.22;100.00;101399.91;4971879;28;97042;-30
2023/10/12 11:18:31;;;;;;;8.68;3.83;;;;;;;16.28;100.00;101402.19;4972921;28;97301;-28
2023/10/12 11:21:03;;;;;;;10.45;3.67;;;;;;;16.28;100.00;101398.53;4972403;28;101288;-28
2023/10/12 11:23:28;;;;;;;;;;;;;;;16.32;100.00;101405.53;4973537;28;100916;-27
2023/10/12 11:26:04;;;;;;;7.13;3.83;;;;;;;16.29;100.00;101387.50;4974581;28;96617;-28
2023/10/12 11:28:30;;;;;;;9.27;3.88;;;;;;;16.30;100.00;101378.34;4975230;28;96629;-28
2023/10/12 11:31:37;;;;;;;12.73;4.63;;;;;;;16.38;100.00;101383.19;4973911;28;99507;-27
2023/10/12 11:33:48;;;;;;;11.52;4.60;;;;;;;16.46;100.00;101383.47;4973488;28;97236;-27
2023/10/12 11:36:25;;;;;;;9.43;4.43;;;;;;;16.48;100.00;101381.47;4973205;28;96667;-28
2023/10/12 11:39:04;;;;;;;12.25;4.18;;;;;;;16.53;100.00;101381.13;4973344;28;96630;-27
2023/10/12 11:41:30;;;;;;;9.85;5.32;;;;;;;16.52;100.00;101380.25;4974248;28;98009;-27
2023/10/12 11:44:05;;;;;;;11.32;4.57;;;;;;;16.54;100.00;101381.00;4972892;28;101399;-28
2023/10/12 11:46:43;;;;;;;9.52;4.63;;;;;;;16.60;100.00;101381.53;4973805;28;96939;-27
2023/10/12 11:49:10;;;;;;;10.40;4.90;;;;;;;16.57;100.00;101368.97;4973475;28;96747;-28
2023/10/12 11:51:50;;;;;;;11.25;4.50;;;;;;;16.58;100.00;101347.94;4973502;28;98057;-28
2023/10/12 11:54:19;;;;;;;9.63;4.47;;;;;;;16.62;100.00;101352.19;4972566;28;101680;-27
2023/10/12 11:56:49;;;;;;;12.88;4.97;;;;;;;16.65;100.00;101357.41;4973069;28;96588;-29
2023/10/12 11:59:22;;;;;;;8.02;4.13;;;;;;;16.60;100.00;101362.38;4973040;28;96695;-27
2023/10/12 12:01:51;;;;;;;9.38;4.75;;;;;;;16.61;100.00;101361.38;4972676;28;101438;-28
2023/10/12 12:04:30;;;;;;;8.55;4.13;;;;;;;16.63;100.00;101360.25;4972521;28;101417;-30
2023/10/12 12:06:56;;;;;;;12.00;4.18;;;;;;;16.56;100.00;101346.22;4974327;28;96537;-28
2023/10/12 12:09:22;;;;;;;8.43;4.55;;;;;;;16.54;100.00;101353.66;4974426;28;96859;-28
2023/10/12 12:11:48;;;;;;;9.07;4.05;;;;;;;16.55;100.00;101358.13;4972566;28;101240;-28
2023/10/12 12:14:14;;;;;;;10.35;4.18;;;;;;;16.53;100.00;101351.03;4973836;28;97812;-27
2023/10/12 12:16:39;;;;;;;7.80;3.75;;;;;;;16.55;100.00;101354.53;4973608;28;96605;-27
2023/10/12 12:19:04;;;;;;;8.45;3.67;;;;;;;16.56;100.00;101357.16;4974326;28;96796;-29
2023/10/12 12:21:31;;;;;;;8.00;3.55;;;;;;;16.54;100.00;101350.03;4974018;28;98220;-28
2023/10/12 12:24:01;;;;;;;8.55;3.72;;;;;;;16.50;100.00;101354.03;4973652;28;99514;-27
2023/10/12 12:26:33;;;;;;;8.07;4.03;;;;;;;16.48;100.00;101347.81;4975784;28;96619;-28
2023/10/12 12:29:03;;;;;;;12.55;4.28;;;;;;;16.48;100.00;101343.19;4975882;28;96859;-28
2023/10/12 12:31:32;;;;;;;5.47;3.03;;;;;;;16.43;100.00;101328.16;4975661;28;101359;-27
2023/10/12 12:33:58;;;;;;;7.85;3.95;;;;;;;16.46;100.00;101330.63;4975841;28;101096;-27
2023/10/12 12:36:23;;;;;;;7.00;3.80;;;;;;;16.41;100.00;101328.25;4975770;28;96662;-27
2023/10/12 12:38:57;;;;;;;10.43;3.88;;;;;;;16.43;100.00;101329.03;4977176;28;96852;-27
2023/10/12 12:41:23;;;;;;;8.90;4.03;;;;;;;16.36;100.00;101327.75;4974835;28;101363;-27
2023/10/12 12:43:50;;;;;;;9.68;4.03;;;;;;;16.37;100.00;101337.69;4974830;28;100910;-27
2023/10/12 12:46:17;;;;;;;8.63;3.75;;;;;;;16.38;100.00;101344.91;4974863;28;96919;-28
2023/10/12 12:48:46;;;;;;;8.18;3.80;;;;;;;16.35;100.00;101339.66;4975553;28;96867;-27
2023/10/12 12:51:15;;;;;;;6.50;3.90;;;;;;;16.36;100.00;101346.91;4975187;28;101224;-28
2023/10/12 12:53:40;;;;;;;6.88;3.95;;;;;;;16.36;100.00;101341.44;4975094;28;101024;-27
2023/10/12 12:56:10;;;;;;;8.98;4.53;;;;;;;16.37;100.00;101337.69;4976797;28;96552;-29
2023/10/12 12:58:36;;;;;;;5.47;3.50;;;;;;;16.38;100.00;101339.44;4977089;28;96884;-28
2023/10/12 13:01:03;;;;;;;7.78;4.03;;;;;;;16.37;100.00;101342.28;4974954;28;101517;-27
2023/10/12 13:03:28;;;;;;;6.38;3.67;;;;;;;16.33;100.00;101347.16;4974853;28;101824;-28
2023/10/12 13:05:54;;;;;;;8.20;3.60;;;;;;;16.32;100.00;101339.91;4976083;28;96627;-28
2023/10/12 13:08:20;;;;;;;7.55;3.65;;;;;;;16.31;100.00;101349.13;4976701;28;96859;-29
2023/10/12 13:10:45;;;;;;;6.30;3.67;;;;;;;16.33;100.00;101356.22;4974647;28;101124;-28
2023/10/12 13:13:12;;;;;;;7.72;4.03;;;;;;;16.34;100.00;101360.69;4976329;28;97668;-28
2023/10/12 13:15:41;;;;;;;5.68;3.38;;;;;;;16.36;100.00;101379.72;4976328;28;96705;-28
2023/10/12 13:18:29;;;;;;;8.82;3.60;;;;;;;16.32;100.00;101378.19;4976368;28;96821;-27
2023/10/12 13:20:57;;;;;;;7.30;3.45;;;;;;;16.30;100.00;101366.50;4973526;28;101945;-28
2023/10/12 13:23:23;;;;;;;8.40;3.90;;;;;;;16.26;100.00;101343.16;4974705;28;100768;-28
2023/10/12 13:25:48;;;;;;;10.50;3.70;;;;;;;16.27;100.00;101337.53;4975044;28;96682;-28
2023/10/12 13:28:14;;;;;;;7.00;3.88;;;;;;;16.29;100.00;101345.63;4976626;28;96816;-28
2023/10/12 13:30:40;;;;;;;5.63;3.47;;;;;;;16.24;100.00;101328.72;4975741;28;97441;-28
2023/10/12 13:33:09;;;;;;;7.32;3.05;;;;;;;16.34;100.00;101335.22;4974556;28;100902;-28
2023/10/12 13:38:09;;;;;;;7.78;3.50;;;;;;;16.42;100.00;101343.69;4976332;28;96922;-28
2023/10/12 13:40:48;;;;;;;8.07;3.58;;;;;;;16.44;100.00;101344.41;4974313;28;100751;-28
2023/10/12 13:43:14;;;;;;;4.63;2.78;;;;;;;16.47;100.00;101344.19;4975385;28;99579;-28
2023/10/12 13:45:48;;;;;;;5.25;3.38;;;;;;;16.44;100.00;101338.09;4974090;28;96595;-28
2023/10/12 13:48:20;;;;;;;6.32;3.60;;;;;;;16.49;100.00;101339.50;4974881;28;97029;-30
2023/10/12 13:51:04;;;;;;;6.97;3.08;;;;;;;16.51;100.00;101333.88;4975431;28;99388;-29